createdAt,value
2023-05-13T00:00:48.368Z,100997.5
2023-05-13T00:03:02.784Z,101003.56
2023-05-13T00:05:18.978Z,101002.11
2023-05-13T00:07:43.896Z,101005.3
2023-05-13T00:10:00.455Z,101003.13
2023-05-13T00:12:11.938Z,101005.35
2023-05-13T00:14:24.034Z,101004.97
2023-05-13T00:16:35.806Z,101007.8
2023-05-13T00:18:54.473Z,101004.56
2023-05-13T00:21:05.920Z,101003.63
2023-05-13T00:23:20.218Z,101004.39
2023-05-13T00:25:35.114Z,101009.55
2023-05-13T00:27:48.083Z,101007.52
2023-05-13T00:29:59.537Z,101011.09
2023-05-13T00:32:11.655Z,101005.47
2023-05-13T00:34:38.014Z,101010.44
2023-05-13T00:36:49.598Z,101016.55
2023-05-13T00:39:12.963Z,101013.13
2023-05-13T00:41:27.664Z,101016.84
2023-05-13T00:43:38.458Z,101015.6
2023-05-13T00:45:49.662Z,101017.32
2023-05-13T00:48:01.087Z,101025.45
2023-05-13T00:50:15.436Z,101029.11
2023-05-13T00:52:34.876Z,101031.5
2023-05-13T00:55:02.018Z,101026.05
2023-05-13T00:57:16.824Z,101027.56
2023-05-13T00:59:29.240Z,101030.36
2023-05-13T01:01:42.979Z,101029.38
2023-05-13T01:04:08.594Z,101031.47
2023-05-13T01:06:21.579Z,101032.53
2023-05-13T01:08:33.659Z,101033.69
2023-05-13T01:10:47.789Z,101035.61
2023-05-13T01:13:18.630Z,101032.78
2023-05-13T01:15:43.100Z,101039.57
2023-05-13T01:17:55.742Z,101036.63
2023-05-13T01:20:06.739Z,101040.11
2023-05-13T01:22:19.556Z,101039.19
2023-05-13T01:24:46.842Z,101037.89
2023-05-13T01:27:01.710Z,101041.08
2023-05-13T01:29:17.113Z,101044.34
2023-05-13T01:31:29.777Z,101042.55
2023-05-13T01:33:42.191Z,101043.36
2023-05-13T01:35:56.213Z,101039.19
2023-05-13T01:38:08.115Z,101041.38
2023-05-13T01:40:39.340Z,101036.25
2023-05-13T01:42:53.553Z,101037.3
2023-05-13T01:45:05.401Z,101040.78
2023-05-13T01:47:44.419Z,101039.55
2023-05-13T01:49:58.914Z,101042.31
2023-05-13T01:52:13.915Z,101044.8
2023-05-13T01:54:25.212Z,101043.67
2023-05-13T01:56:36.834Z,101047.91
2023-05-13T01:58:50.369Z,101047.38
2023-05-13T02:01:05.060Z,101044.19
2023-05-13T02:03:21.888Z,101046.34
2023-05-13T02:05:40.532Z,101046.51
2023-05-13T02:07:52.372Z,101045.38
2023-05-13T02:10:05.437Z,101046.69
2023-05-13T02:12:22.914Z,101049.14
2023-05-13T02:14:35.033Z,101048.58
2023-05-13T02:16:48.762Z,101052.26
2023-05-13T02:19:02.844Z,101053.23
2023-05-13T02:21:20.355Z,101048.63
2023-05-13T02:25:58.513Z,101044.42
2023-05-13T02:28:09.872Z,101041.77
2023-05-13T02:30:25.094Z,101039.69
2023-05-13T02:32:39.463Z,101035.58
2023-05-13T02:34:52.543Z,101041.41
2023-05-13T02:37:21.934Z,101036.41
2023-05-13T02:39:35.816Z,101041.03
2023-05-13T02:41:47.295Z,101042.07
2023-05-13T02:43:59.147Z,101045.01
2023-05-13T02:46:16.378Z,101047.89
2023-05-13T02:48:32.696Z,101049.77
2023-05-13T02:50:45.057Z,101051.41
2023-05-13T02:53:00.734Z,101049.59
2023-05-13T02:55:14.314Z,101053.65
2023-05-13T02:57:27.299Z,101047.51
2023-05-13T02:59:40.742Z,101047.73
2023-05-13T03:01:56.277Z,101053.77
2023-05-13T03:04:09.882Z,101058.36
2023-05-13T03:06:37.743Z,101054.94
2023-05-13T03:08:52.436Z,101058.04
2023-05-13T03:11:14.217Z,101055.25
2023-05-13T03:13:26.701Z,101056.09
2023-05-13T03:15:39.423Z,101055.17
2023-05-13T03:17:55.053Z,101053.39
2023-05-13T03:20:07.856Z,101053.64
2023-05-13T03:22:24.454Z,101057.12
2023-05-13T03:24:36.514Z,101052.61
2023-05-13T03:26:53.893Z,101053.63
2023-05-13T03:29:07.233Z,101054.6
2023-05-13T03:31:36.824Z,101052.81
2023-05-13T03:33:54.001Z,101056.91
2023-05-13T03:36:06.932Z,101054.29
2023-05-13T03:38:22.556Z,101050.59
2023-05-13T03:40:35.332Z,101051.72
2023-05-13T03:42:49.993Z,101053.55
2023-05-13T03:45:02.041Z,101056.23
2023-05-13T03:47:13.618Z,101059.08
2023-05-13T03:49:28.073Z,101066.77
2023-05-13T03:51:40.710Z,101068.82
2023-05-13T03:53:54.474Z,101070.28
2023-05-13T03:56:08.336Z,101076.34
2023-05-13T03:58:22.496Z,101076.33
2023-05-13T04:00:36.333Z,101073.06
2023-05-13T04:02:51.547Z,101078.53
2023-05-13T04:05:02.820Z,101081.51
2023-05-13T04:07:14.159Z,101084.83
2023-05-13T04:09:26.595Z,101086.44
2023-05-13T04:11:38.585Z,101087.86
2023-05-13T04:13:49.975Z,101086.14
2023-05-13T04:16:02.087Z,101086.01
2023-05-13T04:18:16.806Z,101086.34
2023-05-13T04:20:28.818Z,101090.83
2023-05-13T04:22:43.717Z,101094.59
2023-05-13T04:24:57.875Z,101093.23
2023-05-13T04:27:10.800Z,101094.55
2023-05-13T04:29:23.458Z,101091.63
2023-05-13T04:31:37.449Z,101088.48
2023-05-13T04:34:02.340Z,101092.89
2023-05-13T04:36:21.554Z,101088.9
2023-05-13T04:38:33.561Z,101094.59
2023-05-13T04:40:45.701Z,101087.69
2023-05-13T04:42:57.674Z,101091.2
2023-05-13T04:45:12.998Z,101092.56
2023-05-13T04:47:27.965Z,101093.72
2023-05-13T04:49:40.733Z,101089.65
2023-05-13T04:51:54.960Z,101087.16
2023-05-13T04:54:10.394Z,101085.01
2023-05-13T04:56:22.676Z,101084.61
2023-05-13T04:58:34.092Z,101083.06
2023-05-13T05:00:50.853Z,101082.27
2023-05-13T05:03:04.112Z,101084.51
2023-05-13T05:05:29.560Z,101087.91
2023-05-13T05:07:42.930Z,101084.81
2023-05-13T05:09:54.015Z,101088.83
2023-05-13T05:12:10.836Z,101085.03
2023-05-13T05:14:24.508Z,101084.34
2023-05-13T05:16:44.974Z,101079.2
2023-05-13T05:19:01.243Z,101080.41
2023-05-13T05:21:16.994Z,101077.78
2023-05-13T05:23:32.109Z,101081.66
2023-05-13T05:25:44.374Z,101074.52
2023-05-13T05:28:16.837Z,101076.14
2023-05-13T05:30:32.140Z,101076.48
2023-05-13T05:32:42.810Z,101071.38
2023-05-13T05:34:55.284Z,101068.82
2023-05-13T05:37:09.662Z,101070.7
2023-05-13T05:39:25.498Z,101069.26
2023-05-13T05:41:39.875Z,101066.81
2023-05-13T05:43:53.943Z,101074.98
2023-05-13T05:46:07.276Z,101066.65
2023-05-13T05:48:24.285Z,101071.02
2023-05-13T05:50:40.256Z,101071.42
2023-05-13T05:52:54.633Z,101069.2
2023-05-13T05:55:06.034Z,101067.05
2023-05-13T05:57:16.804Z,101065.84
2023-05-13T05:59:43.319Z,101061.85
2023-05-13T06:01:57.340Z,101059.11
2023-05-13T06:04:10.666Z,101059.78
2023-05-13T06:06:27.995Z,101060.57
2023-05-13T06:08:45.298Z,101057.77
2023-05-13T06:11:02.223Z,101056.15
2023-05-13T06:13:18.242Z,101055.98
2023-05-13T06:15:30.836Z,101054.96
2023-05-13T06:17:42.430Z,101049.75
2023-05-13T06:19:54.676Z,101043.61
2023-05-13T06:22:09.456Z,101046.41
2023-05-13T06:24:30.317Z,101046.62
2023-05-13T06:26:46.042Z,101048.36
2023-05-13T06:29:02.337Z,101046
2023-05-13T06:31:15.199Z,101040.89
2023-05-13T06:33:33.120Z,101049.55
2023-05-13T06:35:49.998Z,101050.91
2023-05-13T06:38:02.975Z,101048.69
2023-05-13T06:40:15.012Z,101048.99
2023-05-13T06:42:30.198Z,101052.72
2023-05-13T06:44:50.059Z,101051.06
2023-05-13T06:47:03.701Z,101051.22
2023-05-13T06:49:16.413Z,101048.75
2023-05-13T06:51:29.896Z,101044.95
2023-05-13T06:53:42.237Z,101044.67
2023-05-13T06:55:54.120Z,101044.03
2023-05-13T06:58:07.757Z,101041.91
2023-05-13T07:00:24.560Z,101044.25
2023-05-13T07:02:37.783Z,101039.14
2023-05-13T07:04:53.733Z,101039.8
2023-05-13T07:07:09.690Z,101038.45
2023-05-13T07:09:24.234Z,101039.63
2023-05-13T07:11:38.054Z,101040.59
2023-05-13T07:13:51.022Z,101041.94
2023-05-13T07:16:03.696Z,101042.3
2023-05-13T07:18:18.645Z,101045.98
2023-05-13T07:20:34.512Z,101039.41
2023-05-13T07:22:46.687Z,101045.77
2023-05-13T07:25:42.952Z,101040.69
2023-05-13T07:28:04.957Z,101038.53
2023-05-13T07:30:37.361Z,101045.02
2023-05-13T07:32:51.979Z,101042.66
2023-05-13T07:35:12.713Z,101045.69
2023-05-13T07:37:26.146Z,101041.13
2023-05-13T07:39:37.408Z,101038.89
2023-05-13T07:41:53.680Z,101039.32
2023-05-13T07:44:06.651Z,101040.83
2023-05-13T07:46:17.911Z,101040.59
2023-05-13T07:48:35.177Z,101036.05
2023-05-13T07:50:49.659Z,101037.05
2023-05-13T07:53:00.890Z,101029.52
2023-05-13T07:55:14.612Z,101029.97
2023-05-13T07:57:27.716Z,101035.03
2023-05-13T07:59:44.623Z,101027.67
2023-05-13T08:01:59.372Z,101026.41
2023-05-13T08:04:15.910Z,101025.89
2023-05-13T08:06:33.113Z,101027.52
2023-05-13T08:08:49.354Z,101022.14
2023-05-13T08:11:04.502Z,101018.34
2023-05-13T08:13:22.932Z,101020.13
2023-05-13T08:15:35.953Z,101011.92
2023-05-13T08:17:48.457Z,101015.42
2023-05-13T08:20:04.059Z,101017.59
2023-05-13T08:22:23.849Z,101013.45
2023-05-13T08:24:36.494Z,101015.66
2023-05-13T08:26:47.577Z,101019.23
2023-05-13T08:29:01.936Z,101023.91
2023-05-13T08:31:12.005Z,101022.01
2023-05-13T08:33:24.995Z,101022.33
2023-05-13T08:35:38.579Z,101023.42
2023-05-13T08:37:54.032Z,101013.31
2023-05-13T08:40:06.996Z,101014.73
2023-05-13T08:42:21.853Z,101011.63
2023-05-13T08:44:33.315Z,101013.95
2023-05-13T08:46:47.791Z,101017.27
2023-05-13T08:49:03.628Z,101011.08
2023-05-13T08:51:17.671Z,101006.76
2023-05-13T08:53:34.016Z,101005.76
2023-05-13T08:55:48.796Z,101011.68
2023-05-13T08:58:00.832Z,101011.5
2023-05-13T09:00:13.042Z,101003.44
2023-05-13T09:02:28.922Z,101006.73
2023-05-13T09:04:43.249Z,100998.39
2023-05-13T09:07:02.041Z,101002.77
2023-05-13T09:09:15.091Z,100997.51
2023-05-13T09:11:28.277Z,100991.67
2023-05-13T09:13:42.939Z,100985.7
2023-05-13T09:15:58.019Z,100992.27
2023-05-13T09:18:11.741Z,100991.01
2023-05-13T09:20:26.939Z,100993.52
2023-05-13T09:22:41.276Z,100988.91
2023-05-13T09:24:56.836Z,100990.3
2023-05-13T09:27:09.094Z,100992.17
2023-05-13T09:29:20.757Z,100996.7
2023-05-13T09:31:41.172Z,101003.73
2023-05-13T09:33:51.208Z,100994.89
2023-05-13T09:36:03.834Z,100991.42
2023-05-13T09:38:18.358Z,100986.74
2023-05-13T09:40:32.549Z,100987.34
2023-05-13T09:42:46.696Z,100980.77
2023-05-13T09:45:03.134Z,100980.24
2023-05-13T09:47:20.516Z,100971.22
2023-05-13T09:49:36.810Z,100969.93
2023-05-13T09:51:50.014Z,100965.75
2023-05-13T09:54:06.590Z,100966.77
2023-05-13T09:56:21.212Z,100966.43
2023-05-13T09:58:39.994Z,100966.34
2023-05-13T10:00:54.855Z,100953.63
2023-05-13T10:03:09.610Z,100960.68
2023-05-13T10:05:21.892Z,100964.21
2023-05-13T10:07:34.290Z,100963.09
2023-05-13T10:09:57.797Z,100966.11
2023-05-13T10:12:11.598Z,100959.44
2023-05-13T10:14:27.574Z,100958.58
2023-05-13T10:16:43.722Z,100954.13
2023-05-13T10:18:57.721Z,100955.45
2023-05-13T10:21:09.709Z,100949.83
2023-05-13T10:23:23.276Z,100957.91
2023-05-13T10:25:35.253Z,100946.21
2023-05-13T10:27:47.516Z,100948.61
2023-05-13T10:30:03.620Z,100941.92
2023-05-13T10:32:19.338Z,100941.78
2023-05-13T10:34:33.455Z,100942.03
2023-05-13T10:36:45.435Z,100942.63
2023-05-13T10:39:00.097Z,100947.59
2023-05-13T10:41:18.569Z,100940.45
2023-05-13T10:43:44.153Z,100944.06
2023-05-13T10:46:01.004Z,100947.06
2023-05-13T10:48:16.090Z,100942.7
2023-05-13T10:50:33.653Z,100946.22
2023-05-13T10:52:49.587Z,100944.59
2023-05-13T10:55:01.525Z,100936.89
2023-05-13T10:57:12.916Z,100939.91
2023-05-13T10:59:33.170Z,100936.1
2023-05-13T11:01:48.121Z,100933.8
2023-05-13T11:04:02.713Z,100930.94
2023-05-13T11:06:17.794Z,100938.17
2023-05-13T11:08:30.914Z,100927.96
2023-05-13T11:10:49.523Z,100920.64
2023-05-13T11:13:00.248Z,100927.08
2023-05-13T11:15:12.094Z,100925.93
2023-05-13T11:17:22.773Z,100936.81
2023-05-13T11:19:35.511Z,100935.06
2023-05-13T11:21:54.987Z,100937.87
2023-05-13T11:24:12.353Z,100932.42
2023-05-13T11:26:29.566Z,100925.35
2023-05-13T11:28:45.515Z,100929.94
2023-05-13T11:30:59.841Z,100926.34
2023-05-13T11:33:14.276Z,100923.87
2023-05-13T11:35:29.411Z,100931.16
2023-05-13T11:37:46.941Z,100928.42
2023-05-13T11:40:01.077Z,100927.2
2023-05-13T11:42:14.231Z,100933.94
2023-05-13T11:44:27.673Z,100926.05
2023-05-13T11:46:40.589Z,100933.48
2023-05-13T11:48:56.896Z,100927.76
2023-05-13T11:51:21.978Z,100924.29
2023-05-13T11:53:37.532Z,100922.89
2023-05-13T11:55:53.958Z,100925.56
2023-05-13T11:58:06.135Z,100922.69
2023-05-13T12:00:17.872Z,100922.07
2023-05-13T12:02:34.078Z,100927.7
2023-05-13T12:04:48.915Z,100924.42
2023-05-13T12:07:02.130Z,100920.02
2023-05-13T12:09:15.128Z,100919.67
2023-05-13T12:11:27.914Z,100917.22
2023-05-13T12:13:40.294Z,100911.84
2023-05-13T12:15:52.742Z,100922.53
2023-05-13T12:18:05.007Z,100913.94
2023-05-13T12:20:17.216Z,100909.41
2023-05-13T12:22:28.754Z,100906.66
2023-05-13T12:24:41.895Z,100909.01
2023-05-13T12:26:55.703Z,100912.78
2023-05-13T12:29:10.933Z,100917.41
2023-05-13T12:31:25.227Z,100915.13
2023-05-13T12:33:38.238Z,100913.78
2023-05-13T12:35:55.439Z,100913.09
2023-05-13T12:38:09.229Z,100921.68
2023-05-13T12:40:22.456Z,100915.59
2023-05-13T12:42:37.916Z,100908.39
2023-05-13T12:44:51.776Z,100905.96
2023-05-13T12:47:04.575Z,100905.51
2023-05-13T12:49:17.876Z,100906.66
2023-05-13T12:51:34.315Z,100904.25
2023-05-13T12:54:06.367Z,100904.55
2023-05-13T12:56:23.613Z,100901.53
2023-05-13T12:58:36.593Z,100903.85
2023-05-13T13:00:48.391Z,100900.08
2023-05-13T13:03:01.141Z,100901.63
2023-05-13T13:05:14.779Z,100900.89
2023-05-13T13:07:35.960Z,100900.19
2023-05-13T13:09:51.213Z,100909.55
2023-05-13T13:12:04.802Z,100900.4
2023-05-13T13:14:19.291Z,100900.63
2023-05-13T13:16:33.884Z,100901.52
2023-05-13T13:18:49.489Z,100898.8
2023-05-13T13:21:11.610Z,100900.03
2023-05-13T13:23:26.571Z,100896.84
2023-05-13T13:25:41.031Z,100896.24
2023-05-13T13:27:56.332Z,100895.7
2023-05-13T13:30:08.536Z,100887.12
2023-05-13T13:32:23.353Z,100887.64
2023-05-13T13:34:39.555Z,100887.97
2023-05-13T13:36:51.413Z,100885.64
2023-05-13T13:39:15.820Z,100885.53
2023-05-13T13:41:28.778Z,100883.26
2023-05-13T13:43:43.520Z,100880.03
2023-05-13T13:45:56.838Z,100887.92
2023-05-13T13:48:15.636Z,100881.16
2023-05-13T13:50:32.479Z,100884.13
2023-05-13T13:52:51.256Z,100881.58
2023-05-13T13:55:11.360Z,100874.65
2023-05-13T13:57:26.513Z,100874.86
2023-05-13T13:59:43.385Z,100872.98
2023-05-13T14:02:00.553Z,100874.97
2023-05-13T14:04:16.137Z,100877.07
2023-05-13T14:06:30.697Z,100872.44
2023-05-13T14:08:43.763Z,100869.56
2023-05-13T14:10:55.190Z,100873.27
2023-05-13T14:13:09.274Z,100872.67
2023-05-13T14:15:22.050Z,100878.59
2023-05-13T14:17:35.620Z,100876.59
2023-05-13T14:19:48.016Z,100871.2
2023-05-13T14:22:01.815Z,100869.7
2023-05-13T14:24:14.793Z,100865.78
2023-05-13T14:26:28.678Z,100872.94
2023-05-13T14:28:41.016Z,100871.11
2023-05-13T14:30:53.019Z,100870.82
2023-05-13T14:33:07.194Z,100868.48
2023-05-13T14:35:22.348Z,100864.14
2023-05-13T14:37:34.861Z,100863.62
2023-05-13T14:39:49.246Z,100865.89
2023-05-13T14:42:06.135Z,100864.14
2023-05-13T14:44:19.982Z,100863.45
2023-05-13T14:46:37.747Z,100867.36
2023-05-13T14:48:54.648Z,100863.66
2023-05-13T14:51:10.495Z,100861.13
2023-05-13T14:53:27.013Z,100860.61
2023-05-13T14:55:45.891Z,100867.84
2023-05-13T14:58:02.253Z,100862.17
2023-05-13T15:00:17.995Z,100862.42
2023-05-13T15:02:31.680Z,100871.51
2023-05-13T15:04:43.709Z,100869.52
2023-05-13T15:07:01.125Z,100868.5
2023-05-13T15:09:17.394Z,100862.08
2023-05-13T15:11:33.613Z,100867.44
2023-05-13T15:13:53.188Z,100866.47
2023-05-13T15:16:07.268Z,100861.03
2023-05-13T15:18:23.574Z,100860.16
2023-05-13T15:20:41.980Z,100863.88
2023-05-13T15:22:56.553Z,100864.53
2023-05-13T15:25:09.738Z,100862.16
2023-05-13T15:27:25.673Z,100856.81
2023-05-13T15:29:40.161Z,100856.02
2023-05-13T15:31:58.954Z,100856.46
2023-05-13T15:34:15.655Z,100859.52
2023-05-13T15:36:29.605Z,100853.34
2023-05-13T15:38:44.333Z,100850.67
2023-05-13T15:40:57.330Z,100855.78
2023-05-13T15:43:12.615Z,100852.7
2023-05-13T15:45:26.237Z,100846.29
2023-05-13T15:47:42.818Z,100851.84
2023-05-13T15:50:00.514Z,100852.14
2023-05-13T15:52:18.737Z,100845.31
2023-05-13T15:54:37.699Z,100843.86
2023-05-13T15:56:52.352Z,100846.58
2023-05-13T15:59:11.731Z,100848.11
2023-05-13T16:01:25.370Z,100845.88
2023-05-13T16:03:41.812Z,100841.16
2023-05-13T16:05:53.457Z,100843.56
2023-05-13T16:08:09.377Z,100847.91
2023-05-13T16:10:23.037Z,100842.13
2023-05-13T16:12:36.376Z,100839.16
2023-05-13T16:14:51.054Z,100837.5
2023-05-13T16:17:04.797Z,100838.84
2023-05-13T16:19:17.792Z,100835.18
2023-05-13T16:21:30.478Z,100834.6
2023-05-13T16:23:43.134Z,100839.81
2023-05-13T16:25:56.367Z,100833.42
2023-05-13T16:28:13.601Z,100833.88
2023-05-13T16:30:27.709Z,100829.91
2023-05-13T16:32:42.212Z,100830.81
2023-05-13T16:34:55.193Z,100831.26
2023-05-13T16:37:08.716Z,100830.73
2023-05-13T16:39:23.759Z,100832.59
2023-05-13T16:41:37.532Z,100830.09
2023-05-13T16:43:51.632Z,100825.4
2023-05-13T16:46:03.117Z,100826.13
2023-05-13T16:48:14.610Z,100827.84
2023-05-13T16:50:29.132Z,100828.91
2023-05-13T16:52:41.902Z,100829.03
2023-05-13T16:54:56.095Z,100830.58
2023-05-13T16:57:13.037Z,100829.52
2023-05-13T16:59:25.829Z,100829.41
2023-05-13T17:01:38.646Z,100831.75
2023-05-13T17:03:51.415Z,100829.13
2023-05-13T17:06:07.140Z,100844.3
2023-05-13T17:08:23.914Z,100845.25
2023-05-13T17:10:36.711Z,100845.8
2023-05-13T17:12:58.286Z,100851.22
2023-05-13T17:15:13.359Z,100854.2
2023-05-13T17:17:28.282Z,100857.91
2023-05-13T17:19:46.678Z,100859.95
2023-05-13T17:21:58.994Z,100860.2
2023-05-13T17:24:14.832Z,100862.45
2023-05-13T17:26:28.917Z,100858.16
2023-05-13T17:28:46.233Z,100862.02
2023-05-13T17:30:59.631Z,100857.95
2023-05-13T17:33:19.713Z,100854.64
2023-05-13T17:35:34.153Z,100856.93
2023-05-13T17:37:47.110Z,100857.13
2023-05-13T17:40:00.376Z,100857.61
2023-05-13T17:42:14.222Z,100858.92
2023-05-13T17:44:26.940Z,100856.47
2023-05-13T17:46:39.874Z,100860.83
2023-05-13T17:48:52.218Z,100861.61
2023-05-13T17:51:03.196Z,100863.76
2023-05-13T17:53:15.315Z,100865.48
2023-05-13T17:55:28.456Z,100864.52
2023-05-13T17:57:40.159Z,100864.67
2023-05-13T17:59:56.456Z,100865.3
2023-05-13T18:02:09.019Z,100864.84
2023-05-13T18:04:22.212Z,100871.44
2023-05-13T18:06:34.632Z,100871.31
2023-05-13T18:08:45.931Z,100868.77
2023-05-13T18:10:57.544Z,100876.17
2023-05-13T18:13:12.823Z,100873.02
2023-05-13T18:15:27.078Z,100873.63
2023-05-13T18:17:41.915Z,100871.47
2023-05-13T18:19:54.481Z,100875.9
2023-05-13T18:22:07.016Z,100873.63
2023-05-13T18:24:18.514Z,100871.36
2023-05-13T18:26:31.193Z,100879.59
2023-05-13T18:28:43.922Z,100879.63
2023-05-13T18:30:55.212Z,100880.52
2023-05-13T18:33:07.995Z,100883.48
2023-05-13T18:35:20.351Z,100883.2
2023-05-13T18:37:33.033Z,100885.98
2023-05-13T18:39:45.783Z,100887.3
2023-05-13T18:41:58.775Z,100891.36
2023-05-13T18:44:11.534Z,100892.47
2023-05-13T18:46:25.473Z,100899.57
2023-05-13T18:48:38.836Z,100899.86
2023-05-13T18:50:54.656Z,100904.02
2023-05-13T18:53:09.329Z,100896.83
2023-05-13T18:55:22.873Z,100897.49
2023-05-13T18:57:36.376Z,100896.24
2023-05-13T18:59:49.996Z,100894.84
2023-05-13T19:02:04.214Z,100898.42
2023-05-13T19:04:18.094Z,100898.92
2023-05-13T19:06:32.643Z,100898.52
2023-05-13T19:08:46.632Z,100894.52
2023-05-13T19:11:00.974Z,100894.25
2023-05-13T19:13:12.540Z,100895.8
2023-05-13T19:15:27.872Z,100898.42
2023-05-13T19:17:44.323Z,100892.03
2023-05-13T19:19:58.871Z,100897.27
2023-05-13T19:22:10.532Z,100898.17
2023-05-13T19:24:24.329Z,100901.98
2023-05-13T19:26:52.557Z,100902.8
2023-05-13T19:29:08.952Z,100904.45
2023-05-13T19:31:24.949Z,100900.98
2023-05-13T19:33:37.989Z,100902.92
2023-05-13T19:35:57.357Z,100905.38
2023-05-13T19:38:09.329Z,100907.07
2023-05-13T19:40:31.032Z,100907.44
2023-05-13T19:42:44.235Z,100910.55
2023-05-13T19:44:55.037Z,100913.23
2023-05-13T19:47:06.818Z,100912.13
2023-05-13T19:49:19.632Z,100915.34
2023-05-13T19:51:34.815Z,100913.22
2023-05-13T19:53:50.461Z,100909.34
2023-05-13T19:56:03.540Z,100909.66
2023-05-13T19:58:17.478Z,100909.81
2023-05-13T20:00:30.876Z,100914.7
2023-05-13T20:02:43.788Z,100915.38
2023-05-13T20:04:55.472Z,100917.46
2023-05-13T20:07:09.506Z,100915.34
2023-05-13T20:09:22.343Z,100914.3
2023-05-13T20:11:33.691Z,100914.5
2023-05-13T20:13:45.595Z,100916.89
2023-05-13T20:15:59.655Z,100911.48
2023-05-13T20:18:13.120Z,100913.95
2023-05-13T20:20:25.290Z,100912.06
2023-05-13T20:22:37.834Z,100914.14
2023-05-13T20:24:51.216Z,100914.09
2023-05-13T20:27:03.331Z,100915.42
2023-05-13T20:29:14.936Z,100916.94
2023-05-13T20:31:25.575Z,100916.55
2023-05-13T20:33:37.497Z,100917.79
2023-05-13T20:35:52.660Z,100917.22
2023-05-13T20:38:07.380Z,100919.06
2023-05-13T20:40:21.430Z,100916.72
2023-05-13T20:42:36.323Z,100921.13
2023-05-13T20:44:50.059Z,100920.09
2023-05-13T20:47:04.096Z,100921.72
2023-05-13T20:49:17.116Z,100924.47
2023-05-13T20:51:34.478Z,100926.41
2023-05-13T20:53:49.037Z,100924.06
2023-05-13T20:56:05.622Z,100921.99
2023-05-13T20:58:17.357Z,100923.07
2023-05-13T21:00:30.003Z,100919.51
2023-05-13T21:02:42.076Z,100917.63
2023-05-13T21:04:57.882Z,100918.14
2023-05-13T21:07:10.396Z,100923.2
2023-05-13T21:09:21.376Z,100921.69
2023-05-13T21:11:34.528Z,100918.78
2023-05-13T21:13:46.464Z,100918.72
2023-05-13T21:15:59.208Z,100919.53
2023-05-13T21:18:11.215Z,100914.89
2023-05-13T21:20:23.709Z,100916.58
2023-05-13T21:22:37.782Z,100918.33
2023-05-13T21:24:48.074Z,100920.23
2023-05-13T21:27:00.516Z,100919.83
2023-05-13T21:29:14.698Z,100916.84
2023-05-13T21:31:28.194Z,100924.48
2023-05-13T21:33:42.952Z,100919.14
2023-05-13T21:36:07.272Z,100918.45
2023-05-13T21:38:19.833Z,100924.17
2023-05-13T21:40:31.034Z,100917.38
2023-05-13T21:42:45.452Z,100921.92
2023-05-13T21:44:56.790Z,100915.5
2023-05-13T21:47:09.455Z,100919.74
2023-05-13T21:49:23.271Z,100924.44
2023-05-13T21:51:35.718Z,100921.77
2023-05-13T21:53:48.337Z,100921.97
2023-05-13T21:56:01.697Z,100921.48
2023-05-13T21:58:12.753Z,100918.51
2023-05-13T22:00:26.232Z,100920.56
2023-05-13T22:02:37.797Z,100920.6
2023-05-13T22:04:50.127Z,100917.19
2023-05-13T22:07:02.589Z,100918.46
2023-05-13T22:09:17.834Z,100918.61
2023-05-13T22:11:30.492Z,100918.24
2023-05-13T22:13:44.993Z,100918.89
2023-05-13T22:15:56.121Z,100923.58
2023-05-13T22:18:08.100Z,100916.78
2023-05-13T22:20:21.352Z,100918.63
2023-05-13T22:22:33.171Z,100917.97
2023-05-13T22:24:44.696Z,100919.61
2023-05-13T22:26:58.089Z,100921.2
2023-05-13T22:29:10.291Z,100920.23
2023-05-13T22:31:23.444Z,100918.05
2023-05-13T22:33:35.412Z,100917.47
2023-05-13T22:35:46.034Z,100923.09
2023-05-13T22:37:57.314Z,100922.45
2023-05-13T22:40:09.297Z,100920.92
2023-05-13T22:42:24.799Z,100926.28
2023-05-13T22:44:38.955Z,100929.02
2023-05-13T22:46:51.116Z,100929.29
2023-05-13T22:49:04.094Z,100930.28
2023-05-13T22:51:15.832Z,100929.22
2023-05-13T22:53:26.320Z,100932.48
2023-05-13T22:55:37.757Z,100931.89
2023-05-13T22:57:49.473Z,100933.14
2023-05-13T23:00:01.180Z,100938.05
2023-05-13T23:02:12.649Z,100939.89
2023-05-13T23:04:24.337Z,100936.43
2023-05-13T23:06:39.718Z,100939.22
2023-05-13T23:08:52.085Z,100935.61
2023-05-13T23:11:03.776Z,100933.64
2023-05-13T23:13:21.094Z,100936.83
2023-05-13T23:15:33.316Z,100933.52
2023-05-13T23:17:44.569Z,100937.03
2023-05-13T23:19:57.329Z,100934.08
2023-05-13T23:22:09.371Z,100934.11
2023-05-13T23:24:21.329Z,100935.92
2023-05-13T23:26:34.619Z,100938.14
2023-05-13T23:28:49.152Z,100936.08
2023-05-13T23:31:01.568Z,100931.82
2023-05-13T23:33:15.898Z,100933.35
2023-05-13T23:35:26.612Z,100931.53
2023-05-13T23:37:39.752Z,100929.49
2023-05-13T23:39:53.620Z,100926.5
2023-05-13T23:42:07.211Z,100928.81
2023-05-13T23:44:18.370Z,100927.48
2023-05-13T23:46:29.561Z,100933.14
2023-05-13T23:48:41.163Z,100930.26
2023-05-13T23:50:53.133Z,100928.52
2023-05-13T23:53:06.553Z,100930.94
2023-05-13T23:55:19.996Z,100925.55
2023-05-13T23:57:31.772Z,100926.72
2023-05-13T23:59:42.715Z,100928.31
